Terminal Aerodrome Forecast
Issued by NWS

Home | Current Version | Previous Version | Text Only | Print | Product List | Glossary On
Versions: 1 2 3 4 5 6 7 8 9 10 11 12 13 14 15 16 17 18 19 20 21 22 23 24 25 26 27
000
FTUS41 KBOX 191125
TAFACK
TAF
KACK 191125Z 1912/2012 02014G24KT P6SM SCT060 BKN100
     FM191600 04015KT P6SM FEW150
     FM192300 08012KT P6SM SKC
     FM200200 11008KT P6SM SKC
     FM200800 15006KT P6SM FEW250=

USA.gov is the U.S. government's official web portal to all federal, state and local government web resources and services.